createdAt,value
2018-12-14T00:00:49.053Z,10.80
2018-12-14T00:03:16.233Z,11.70
2018-12-14T00:05:43.524Z,11.40
2018-12-14T00:08:10.848Z,11.07
2018-12-14T00:10:38.055Z,10.97
2018-12-14T00:13:11.986Z,11.60
2018-12-14T00:15:39.303Z,10.73
2018-12-14T00:18:06.695Z,10.33
2018-12-14T00:20:33.926Z,11.43
2018-12-14T00:23:01.332Z,11.43
2018-12-14T00:25:28.595Z,11.00
2018-12-14T00:27:55.959Z,11.10
2018-12-14T00:30:23.190Z,10.87
2018-12-14T00:32:50.445Z,10.80
2018-12-14T00:35:18.235Z,11.20
2018-12-14T00:37:45.499Z,11.20
2018-12-14T00:40:12.745Z,10.93
2018-12-14T00:42:39.967Z,10.97
2018-12-14T00:45:07.242Z,11.10
2018-12-14T00:47:34.503Z,11.17
2018-12-14T00:50:01.861Z,10.90
2018-12-14T00:52:29.298Z,11.13
2018-12-14T00:54:56.562Z,10.63
2018-12-14T00:57:23.862Z,11.07
2018-12-14T00:59:51.079Z,10.87
2018-12-14T01:02:23.979Z,10.97
2018-12-14T01:04:51.202Z,10.13
2018-12-14T01:07:18.494Z,11.13
2018-12-14T01:09:45.826Z,10.90
2018-12-14T01:12:13.099Z,10.90
2018-12-14T01:14:40.434Z,10.73
2018-12-14T01:17:07.773Z,10.93
2018-12-14T01:19:35.190Z,11.20
2018-12-14T01:22:02.436Z,11.47
2018-12-14T01:24:29.689Z,11.80
2018-12-14T01:26:56.982Z,11.23
2018-12-14T01:29:24.237Z,10.40
2018-12-14T01:31:51.465Z,10.77
2018-12-14T01:34:18.738Z,10.47
2018-12-14T01:36:46.118Z,10.73
2018-12-14T01:39:13.344Z,10.60
2018-12-14T01:41:40.557Z,11.23
2018-12-14T01:46:48.611Z,11.47
2018-12-14T01:49:15.890Z,10.40
2018-12-14T01:51:43.130Z,11.67
2018-12-14T01:54:10.402Z,10.93
2018-12-14T01:56:37.823Z,11.13
2018-12-14T01:59:05.167Z,11.10
2018-12-14T02:01:32.377Z,10.63
2018-12-14T02:03:59.921Z,11.63
2018-12-14T02:06:27.199Z,10.73
2018-12-14T02:08:54.456Z,10.57
2018-12-14T02:11:21.786Z,10.33
2018-12-14T02:13:49.033Z,10.40
2018-12-14T02:16:16.241Z,10.73
2018-12-14T02:18:43.716Z,10.50
2018-12-14T02:21:10.959Z,10.77
2018-12-14T02:23:38.178Z,11.13
2018-12-14T02:26:05.409Z,10.23
2018-12-14T02:28:32.674Z,10.60
2018-12-14T02:30:59.923Z,10.27
2018-12-14T02:33:27.219Z,10.20
2018-12-14T02:35:54.515Z,11.00
2018-12-14T02:38:21.730Z,10.33
2018-12-14T02:40:48.954Z,11.13
2018-12-14T02:43:16.489Z,10.23
2018-12-14T02:45:43.727Z,9.80
2018-12-14T02:48:11.064Z,11.10
2018-12-14T02:50:38.304Z,10.40
2018-12-14T02:53:05.556Z,10.87
2018-12-14T02:55:32.910Z,10.70
2018-12-14T02:58:00.141Z,10.70
2018-12-14T03:00:27.638Z,11.27
2018-12-14T03:02:54.910Z,10.60
2018-12-14T03:05:22.158Z,10.90
2018-12-14T03:07:49.364Z,11.27
2018-12-14T03:10:16.602Z,10.80
2018-12-14T03:12:43.929Z,10.50
2018-12-14T03:15:11.405Z,10.83
2018-12-14T03:17:38.821Z,9.73
2018-12-14T03:20:06.662Z,9.80
2018-12-14T03:22:34.020Z,10.80
2018-12-14T03:25:01.264Z,10.03
2018-12-14T03:27:28.506Z,10.70
2018-12-14T03:29:55.758Z,10.57
2018-12-14T03:32:23.017Z,10.50
2018-12-14T03:34:50.331Z,11.03
2018-12-14T03:37:17.591Z,9.93
2018-12-14T03:39:44.803Z,10.40
2018-12-14T03:42:12.168Z,10.37
2018-12-14T03:44:39.707Z,10.43
2018-12-14T03:47:07.066Z,10.30
2018-12-14T03:49:34.365Z,11.27
2018-12-14T03:52:01.726Z,11.03
2018-12-14T03:54:29.067Z,10.17
2018-12-14T03:56:56.299Z,10.33
2018-12-14T03:59:23.496Z,10.80
2018-12-14T04:01:50.771Z,10.40
2018-12-14T04:04:18.073Z,10.57
2018-12-14T04:06:45.323Z,10.30
2018-12-14T04:09:12.557Z,10.20
2018-12-14T04:11:39.906Z,10.67
2018-12-14T04:14:07.195Z,10.40
2018-12-14T04:16:34.471Z,11.00
2018-12-14T04:19:01.815Z,10.13
2018-12-14T04:21:29.090Z,10.90
2018-12-14T04:23:56.379Z,11.40
2018-12-14T04:26:23.799Z,11.57
2018-12-14T04:28:51.079Z,12.10
2018-12-14T04:31:18.341Z,11.47
2018-12-14T04:33:45.606Z,10.90
2018-12-14T04:36:12.943Z,10.73
2018-12-14T04:38:40.230Z,10.80
2018-12-14T04:41:07.698Z,10.27
2018-12-14T04:43:35.046Z,10.40
2018-12-14T04:46:02.316Z,10.07
2018-12-14T04:48:29.775Z,10.60
2018-12-14T04:50:57.180Z,11.07
2018-12-14T04:53:24.411Z,10.57
2018-12-14T04:55:51.656Z,10.97
2018-12-14T04:58:18.975Z,10.37
2018-12-14T05:00:46.330Z,10.80
2018-12-14T05:10:20.625Z,10.03
2018-12-14T05:12:47.865Z,10.33
2018-12-14T05:15:15.161Z,10.03
2018-12-14T05:17:42.539Z,10.53
2018-12-14T05:20:09.899Z,9.87
2018-12-14T05:22:37.506Z,9.83
2018-12-14T05:25:05.222Z,10.77
2018-12-14T05:27:32.488Z,10.63
2018-12-14T05:30:00.175Z,10.90
2018-12-14T05:32:29.655Z,10.73
2018-12-14T05:34:57.022Z,10.97
2018-12-14T05:37:24.258Z,10.30
2018-12-14T05:39:51.474Z,10.90
2018-12-14T05:42:18.746Z,10.20
2018-12-14T05:44:46.009Z,10.50
2018-12-14T05:47:13.422Z,11.07
2018-12-14T05:49:40.967Z,10.93
2018-12-14T05:52:08.194Z,11.20
2018-12-14T05:54:35.382Z,11.13
2018-12-14T05:57:02.727Z,10.70
2018-12-14T05:59:29.978Z,10.23
2018-12-14T06:01:57.366Z,10.70
2018-12-14T06:04:24.582Z,10.57
2018-12-14T06:06:51.985Z,10.80
2018-12-14T06:09:19.278Z,10.60
2018-12-14T06:11:46.557Z,11.37
2018-12-14T06:14:13.818Z,10.73
2018-12-14T06:16:41.066Z,11.00
2018-12-14T06:19:08.314Z,10.77
2018-12-14T06:21:35.558Z,10.47
2018-12-14T06:24:02.930Z,10.90
2018-12-14T06:26:30.342Z,10.93
2018-12-14T06:28:57.581Z,10.47
2018-12-14T06:31:24.819Z,10.57
2018-12-14T06:33:52.022Z,10.23
2018-12-14T06:36:19.902Z,10.73
2018-12-14T06:38:47.101Z,10.20
2018-12-14T06:41:14.322Z,10.67
2018-12-14T06:43:41.654Z,10.70
2018-12-14T06:46:08.882Z,10.93
2018-12-14T06:48:36.110Z,9.90
2018-12-14T06:51:06.872Z,10.50
2018-12-14T06:53:34.080Z,10.77
2018-12-14T06:56:01.339Z,11.47
2018-12-14T06:58:28.513Z,11.23
2018-12-14T07:00:55.906Z,12.00
2018-12-14T07:03:23.083Z,11.80
2018-12-14T07:05:50.383Z,11.97
2018-12-14T07:08:17.600Z,10.73
2018-12-14T07:10:44.798Z,11.20
2018-12-14T07:13:12.006Z,10.73
2018-12-14T07:15:39.368Z,11.70
2018-12-14T07:18:06.715Z,11.37
2018-12-14T07:20:34.171Z,13.27
2018-12-14T07:23:01.404Z,11.93
2018-12-14T07:25:28.601Z,11.37
2018-12-14T07:27:55.815Z,10.67
2018-12-14T07:30:22.996Z,10.47
2018-12-14T07:32:50.215Z,10.90
2018-12-14T07:35:17.446Z,11.00
2018-12-14T07:37:44.679Z,11.50
2018-12-14T07:40:12.033Z,11.33
2018-12-14T07:42:39.257Z,11.63
2018-12-14T07:45:06.698Z,10.97
2018-12-14T07:47:33.923Z,10.77
2018-12-14T07:50:01.200Z,10.97
2018-12-14T07:52:28.469Z,10.90
2018-12-14T07:54:55.782Z,10.97
2018-12-14T07:57:23.024Z,11.13
2018-12-14T07:59:50.266Z,11.07
2018-12-14T08:02:17.510Z,11.67
2018-12-14T08:04:45.077Z,12.00
2018-12-14T08:07:12.444Z,11.53
2018-12-14T08:09:39.662Z,10.93
2018-12-14T08:12:06.982Z,10.73
2018-12-14T08:14:34.214Z,10.37
2018-12-14T08:17:01.443Z,11.77
2018-12-14T08:19:28.651Z,14.10
2018-12-14T08:21:55.859Z,11.77
2018-12-14T08:24:23.043Z,11.77
2018-12-14T08:26:50.237Z,11.97
2018-12-14T08:29:17.430Z,10.80
2018-12-14T08:31:44.630Z,12.70
2018-12-14T08:34:11.833Z,11.80
2018-12-14T08:36:39.279Z,11.03
2018-12-14T08:39:06.971Z,11.40
2018-12-14T08:41:34.290Z,10.93
2018-12-14T08:44:01.562Z,11.63
2018-12-14T08:46:29.695Z,11.57
2018-12-14T08:48:56.908Z,11.33
2018-12-14T08:51:24.151Z,11.23
2018-12-14T08:53:51.515Z,11.47
2018-12-14T08:56:18.856Z,11.30
2018-12-14T08:58:46.154Z,11.33
2018-12-14T09:01:13.390Z,11.50
2018-12-14T09:03:40.646Z,11.27
2018-12-14T09:06:07.966Z,11.33
2018-12-14T09:08:35.201Z,11.50
2018-12-14T09:11:02.616Z,11.27
2018-12-14T09:13:29.851Z,11.40
2018-12-14T09:15:57.100Z,11.50
2018-12-14T09:18:24.406Z,11.37
2018-12-14T09:20:51.763Z,10.73
2018-12-14T09:23:19.092Z,10.97
2018-12-14T09:25:46.315Z,11.33
2018-12-14T09:28:13.526Z,11.10
2018-12-14T09:30:42.802Z,11.03
2018-12-14T09:33:09.982Z,10.87
2018-12-14T09:35:37.233Z,11.57
2018-12-14T09:38:04.490Z,10.60
2018-12-14T09:40:31.748Z,10.83
2018-12-14T09:42:59.075Z,11.00
2018-12-14T09:45:26.343Z,11.97
2018-12-14T09:47:53.578Z,11.63
2018-12-14T09:50:20.962Z,10.97
2018-12-14T09:52:48.175Z,11.40
2018-12-14T09:55:15.390Z,11.70
2018-12-14T09:57:42.618Z,11.73
2018-12-14T10:00:10.084Z,11.43
2018-12-14T10:02:37.301Z,11.60
2018-12-14T10:05:06.216Z,11.77
2018-12-14T10:07:33.453Z,11.17
2018-12-14T10:10:00.698Z,10.93
2018-12-14T10:12:27.930Z,10.87
2018-12-14T10:14:55.302Z,11.03
2018-12-14T10:17:22.536Z,11.57
2018-12-14T10:19:49.750Z,11.30
2018-12-14T10:22:17.004Z,11.37
2018-12-14T10:24:44.252Z,10.30
2018-12-14T10:27:11.477Z,11.40
2018-12-14T10:29:38.814Z,10.90
2018-12-14T10:32:06.078Z,11.10
2018-12-14T10:34:33.321Z,11.20
2018-12-14T10:37:00.562Z,11.40
2018-12-14T10:39:27.790Z,10.90
2018-12-14T10:41:55.242Z,10.97
2018-12-14T10:44:22.474Z,10.83
2018-12-14T10:46:49.722Z,10.60
2018-12-14T10:49:16.974Z,12.17
2018-12-14T10:51:44.978Z,11.80
2018-12-14T10:54:12.220Z,12.23
2018-12-14T10:56:39.470Z,11.87
2018-12-14T10:59:06.838Z,11.47
2018-12-14T11:01:39.775Z,11.90
2018-12-14T11:04:07.016Z,11.87
2018-12-14T11:06:34.374Z,11.60
2018-12-14T11:09:01.759Z,11.13
2018-12-14T11:11:29.005Z,12.73
2018-12-14T11:13:56.238Z,12.70
2018-12-14T11:16:23.469Z,11.03
2018-12-14T11:18:50.726Z,11.17
2018-12-14T11:21:17.948Z,11.53
2018-12-14T11:23:45.182Z,11.70
2018-12-14T11:26:12.405Z,11.70
2018-12-14T11:28:39.643Z,10.60
2018-12-14T11:31:06.883Z,11.67
2018-12-14T11:33:34.593Z,10.87
2018-12-14T11:36:01.894Z,10.10
2018-12-14T11:38:29.128Z,10.87
2018-12-14T11:40:56.615Z,10.67
2018-12-14T11:43:23.841Z,10.30
2018-12-14T11:45:51.197Z,10.73
2018-12-14T11:48:18.463Z,10.13
2018-12-14T11:50:45.662Z,10.70
2018-12-14T11:53:17.533Z,10.17
2018-12-14T11:55:44.891Z,10.20
2018-12-14T11:58:12.199Z,10.07
2018-12-14T12:00:39.518Z,9.57
2018-12-14T12:03:06.853Z,8.67
2018-12-14T12:05:34.234Z,9.00
2018-12-14T12:08:01.803Z,8.67
2018-12-14T12:10:29.106Z,8.93
2018-12-14T12:12:56.307Z,9.40
2018-12-14T12:15:23.610Z,9.00
2018-12-14T12:17:50.954Z,9.20
2018-12-14T12:20:18.290Z,8.97
2018-12-14T12:22:45.476Z,8.50
2018-12-14T12:25:12.814Z,8.63
2018-12-14T12:27:40.010Z,8.97
2018-12-14T12:30:08.060Z,7.67
2018-12-14T12:32:35.374Z,8.00
2018-12-14T12:35:02.810Z,7.30
2018-12-14T12:37:30.362Z,7.50
2018-12-14T12:39:57.708Z,7.70
2018-12-14T12:42:25.025Z,7.83
2018-12-14T12:44:52.283Z,7.50
2018-12-14T12:47:19.507Z,7.67
2018-12-14T12:49:46.713Z,8.30
2018-12-14T12:52:13.962Z,8.23
2018-12-14T12:54:41.194Z,7.67
2018-12-14T12:57:08.672Z,7.10
2018-12-14T12:59:36.043Z,7.03
2018-12-14T13:02:03.427Z,7.73
2018-12-14T13:04:30.758Z,8.33
2018-12-14T13:06:57.986Z,8.13
2018-12-14T13:09:25.237Z,7.87
2018-12-14T13:11:52.602Z,7.93
2018-12-14T13:14:19.810Z,7.77
2018-12-14T13:16:47.093Z,8.07
2018-12-14T13:19:14.383Z,8.17
2018-12-14T13:21:41.634Z,8.20
2018-12-14T13:24:08.833Z,7.90
2018-12-14T13:26:36.614Z,7.40
2018-12-14T13:29:03.899Z,8.00
2018-12-14T13:31:33.547Z,8.27
2018-12-14T13:34:01.306Z,8.27
2018-12-14T13:36:28.618Z,7.77
2018-12-14T13:38:55.834Z,8.13
2018-12-14T13:41:23.381Z,8.07
2018-12-14T13:43:50.793Z,8.43
2018-12-14T13:46:18.182Z,9.00
2018-12-14T13:48:45.396Z,9.00
2018-12-14T13:51:12.935Z,9.03
2018-12-14T13:53:40.888Z,8.43
2018-12-14T13:56:08.263Z,8.50
2018-12-14T13:58:35.543Z,8.23
2018-12-14T14:01:03.047Z,7.87
2018-12-14T14:03:30.426Z,8.87
2018-12-14T14:05:57.682Z,7.57
2018-12-14T14:08:25.114Z,8.27
2018-12-14T14:10:52.408Z,8.73
2018-12-14T14:13:19.778Z,8.27
2018-12-14T14:15:50.737Z,7.93
2018-12-14T14:18:16.639Z,8.40
2018-12-14T14:20:44.219Z,8.87
2018-12-14T14:23:11.482Z,8.67
2018-12-14T14:25:39.054Z,8.57
2018-12-14T14:28:06.471Z,8.20
2018-12-14T14:30:34.292Z,8.83
2018-12-14T14:33:01.960Z,8.27
2018-12-14T14:35:29.347Z,8.80
2018-12-14T14:37:57.639Z,8.27
2018-12-14T14:40:25.366Z,8.67
2018-12-14T14:42:52.966Z,8.40
2018-12-14T14:45:20.355Z,8.70
2018-12-14T14:47:47.582Z,10.20
2018-12-14T14:50:14.856Z,9.17
2018-12-14T14:52:42.072Z,9.10
2018-12-14T14:55:09.435Z,8.80
2018-12-14T14:57:37.455Z,8.47
2018-12-14T15:00:05.815Z,9.07
2018-12-14T15:02:33.329Z,10.13
2018-12-14T15:05:00.743Z,8.93
2018-12-14T15:07:28.069Z,8.50
2018-12-14T15:09:55.472Z,8.70
2018-12-14T15:12:22.855Z,7.63
2018-12-14T15:14:50.368Z,8.20
2018-12-14T15:17:17.729Z,7.20
2018-12-14T15:19:45.485Z,8.10
2018-12-14T15:22:13.030Z,8.07
2018-12-14T15:24:40.274Z,7.87
2018-12-14T15:27:07.538Z,8.00
2018-12-14T15:29:34.807Z,8.37
2018-12-14T15:32:02.199Z,8.20
2018-12-14T15:34:29.495Z,8.17
2018-12-14T15:36:56.763Z,7.87
2018-12-14T15:39:24.096Z,7.60
2018-12-14T15:41:51.327Z,8.43
2018-12-14T15:44:18.631Z,8.20
2018-12-14T15:46:46.166Z,6.97
2018-12-14T15:49:13.535Z,8.03
2018-12-14T15:51:40.948Z,7.30
2018-12-14T15:54:08.271Z,7.17
2018-12-14T15:56:35.545Z,7.20
2018-12-14T15:59:03.018Z,7.00
2018-12-14T16:01:30.319Z,7.83
2018-12-14T16:03:57.767Z,8.80
2018-12-14T16:06:25.243Z,8.67
2018-12-14T16:08:52.487Z,8.63
2018-12-14T16:11:19.747Z,7.00
2018-12-14T16:13:46.990Z,7.37
2018-12-14T16:16:14.257Z,7.17
2018-12-14T16:18:41.533Z,8.07
2018-12-14T16:21:08.935Z,7.70
2018-12-14T16:23:36.159Z,8.07
2018-12-14T16:26:03.530Z,9.30
2018-12-14T16:28:31.024Z,9.40
2018-12-14T16:30:58.291Z,8.00
2018-12-14T16:33:25.748Z,9.83
2018-12-14T16:35:53.007Z,11.13
2018-12-14T16:38:20.271Z,10.17
2018-12-14T16:40:47.617Z,10.87
2018-12-14T16:43:14.899Z,10.17
2018-12-14T16:45:42.163Z,9.43
2018-12-14T16:48:09.511Z,10.20
2018-12-14T16:50:36.810Z,10.13
2018-12-14T16:53:04.319Z,7.70
2018-12-14T16:55:31.586Z,10.43
2018-12-14T16:57:58.970Z,9.53
2018-12-14T17:00:26.407Z,11.03
2018-12-14T17:02:53.794Z,7.93
2018-12-14T17:05:21.656Z,9.30
2018-12-14T17:07:48.934Z,7.70
2018-12-14T17:10:16.286Z,7.00
2018-12-14T17:12:43.915Z,7.80
2018-12-14T17:15:11.175Z,7.57
2018-12-14T17:17:38.565Z,7.93
2018-12-14T17:20:06.132Z,7.47
2018-12-14T17:22:33.491Z,7.17
2018-12-14T17:25:00.784Z,6.70
2018-12-14T17:27:28.131Z,6.57
2018-12-14T17:29:55.453Z,6.80
2018-12-14T17:32:22.702Z,7.23
2018-12-14T17:34:50.095Z,7.17
2018-12-14T17:37:17.438Z,7.43
2018-12-14T17:39:44.655Z,6.73
2018-12-14T17:42:12.062Z,7.17
2018-12-14T17:44:39.462Z,7.30
2018-12-14T17:47:06.978Z,7.30
2018-12-14T17:49:34.489Z,7.30
2018-12-14T17:52:01.830Z,7.47
2018-12-14T17:54:29.075Z,7.10
2018-12-14T17:56:56.380Z,7.97
2018-12-14T17:59:23.657Z,7.17
2018-12-14T18:01:51.058Z,8.57
2018-12-14T18:04:18.300Z,8.00
2018-12-14T18:06:45.757Z,8.60
2018-12-14T18:09:12.994Z,6.40
2018-12-14T18:11:40.350Z,7.00
2018-12-14T18:14:14.530Z,6.90
2018-12-14T18:16:41.944Z,7.27
2018-12-14T18:19:09.387Z,6.43
2018-12-14T18:21:36.886Z,6.77
2018-12-14T18:24:04.345Z,6.47
2018-12-14T18:26:31.599Z,6.80
2018-12-14T18:28:58.945Z,7.07
2018-12-14T18:31:26.233Z,6.17
2018-12-14T18:33:53.530Z,6.30
2018-12-14T18:36:20.995Z,6.27
2018-12-14T18:38:48.344Z,6.30
2018-12-14T18:41:15.594Z,6.60
2018-12-14T18:43:42.862Z,7.17
2018-12-14T18:46:10.097Z,13.03
2018-12-14T18:48:37.422Z,9.10
2018-12-14T18:51:04.898Z,9.43
2018-12-14T18:53:32.532Z,7.47
2018-12-14T18:55:59.749Z,7.10
2018-12-14T18:58:27.114Z,6.70
2018-12-14T19:00:54.598Z,6.80
2018-12-14T19:03:22.135Z,6.47
2018-12-14T19:05:49.363Z,6.70
2018-12-14T19:08:16.622Z,5.40
2018-12-14T19:10:43.842Z,6.00
2018-12-14T19:13:11.116Z,6.03
2018-12-14T19:15:38.344Z,6.00
2018-12-14T19:18:05.623Z,5.73
2018-12-14T19:20:32.890Z,5.90
2018-12-14T19:23:00.166Z,6.03
2018-12-14T19:25:27.447Z,8.00
2018-12-14T19:27:54.787Z,6.77
2018-12-14T19:30:22.043Z,5.63
2018-12-14T19:32:49.314Z,5.77
2018-12-14T19:35:16.715Z,6.20
2018-12-14T19:37:43.999Z,5.73
2018-12-14T19:40:11.366Z,6.30
2018-12-14T19:42:38.695Z,6.73
2018-12-14T19:45:08.142Z,6.20
2018-12-14T19:47:35.666Z,7.03
2018-12-14T19:50:03.839Z,6.57
2018-12-14T19:52:31.260Z,7.17
2018-12-14T19:54:58.649Z,7.20
2018-12-14T19:57:26.034Z,8.10
2018-12-14T19:59:53.328Z,7.10
2018-12-14T20:02:20.625Z,7.17
2018-12-14T20:04:48.031Z,6.77
2018-12-14T20:07:15.370Z,7.23
2018-12-14T20:09:42.619Z,7.13
2018-12-14T20:12:09.871Z,7.47
2018-12-14T20:14:37.182Z,7.90
2018-12-14T20:17:04.450Z,8.07
2018-12-14T20:19:31.822Z,7.57
2018-12-14T20:21:59.173Z,7.87
2018-12-14T20:24:26.666Z,8.27
2018-12-14T20:26:54.007Z,8.37
2018-12-14T20:29:21.381Z,7.17
2018-12-14T20:31:48.837Z,7.30
2018-12-14T20:34:16.108Z,7.10
2018-12-14T20:36:43.434Z,7.23
2018-12-14T20:39:10.776Z,6.93
2018-12-14T20:41:38.071Z,6.83
2018-12-14T20:44:05.378Z,7.07
2018-12-14T20:46:32.658Z,7.50
2018-12-14T20:49:00.003Z,7.63
2018-12-14T20:51:27.403Z,9.10
2018-12-14T20:53:54.800Z,12.73
2018-12-14T20:56:22.085Z,11.37
2018-12-14T20:58:49.382Z,7.10
2018-12-14T21:01:16.638Z,8.60
2018-12-14T21:03:44.123Z,8.87
2018-12-14T21:06:11.567Z,8.50
2018-12-14T21:08:39.414Z,8.37
2018-12-14T21:11:06.792Z,7.73
2018-12-14T21:13:34.076Z,7.33
2018-12-14T21:16:01.367Z,7.53
2018-12-14T21:18:28.790Z,7.90
2018-12-14T21:20:56.198Z,7.47
2018-12-14T21:23:23.719Z,7.20
2018-12-14T21:25:51.127Z,7.93
2018-12-14T21:28:18.487Z,8.23
2018-12-14T21:30:46.018Z,7.80
2018-12-14T21:33:13.332Z,7.40
2018-12-14T21:35:40.640Z,7.47
2018-12-14T21:38:08.242Z,7.77
2018-12-14T21:40:35.536Z,7.67
2018-12-14T21:43:03.033Z,7.80
2018-12-14T21:45:30.417Z,7.10
2018-12-14T21:47:57.808Z,6.80
2018-12-14T21:50:25.234Z,7.20
2018-12-14T21:52:54.713Z,7.23
2018-12-14T21:55:21.997Z,6.97
2018-12-14T21:57:51.159Z,7.27
2018-12-14T22:00:18.591Z,8.48
2018-12-14T22:02:45.813Z,7.33
2018-12-14T22:05:13.497Z,7.50
2018-12-14T22:07:40.909Z,6.73
2018-12-14T22:10:08.723Z,7.37
2018-12-14T22:12:36.491Z,7.07
2018-12-14T22:15:04.833Z,7.27
2018-12-14T22:17:32.412Z,7.23
2018-12-14T22:20:00.054Z,6.93
2018-12-14T22:22:27.735Z,7.00
2018-12-14T22:24:55.327Z,7.00
2018-12-14T22:27:22.854Z,7.17
2018-12-14T22:29:50.227Z,7.60
2018-12-14T22:32:23.027Z,7.40
2018-12-14T22:35:21.614Z,9.77
2018-12-14T22:37:48.943Z,8.13
2018-12-14T22:40:16.367Z,8.70
2018-12-14T22:42:43.846Z,8.77
2018-12-14T22:45:11.462Z,8.10
2018-12-14T22:47:38.790Z,7.87
2018-12-14T22:50:06.424Z,7.63
2018-12-14T22:52:33.861Z,7.83
2018-12-14T22:55:01.344Z,7.53
2018-12-14T22:57:28.567Z,8.40
2018-12-14T22:59:56.548Z,8.13
2018-12-14T23:02:24.058Z,8.50
2018-12-14T23:04:51.349Z,7.60
2018-12-14T23:07:19.092Z,8.27
2018-12-14T23:09:46.547Z,8.80
2018-12-14T23:12:14.294Z,9.07
2018-12-14T23:14:41.663Z,8.70
2018-12-14T23:17:09.288Z,9.23
2018-12-14T23:19:42.406Z,9.07
2018-12-14T23:22:09.888Z,8.87
2018-12-14T23:24:37.271Z,9.13
2018-12-14T23:27:04.571Z,9.40
2018-12-14T23:29:31.813Z,9.30
2018-12-14T23:31:59.074Z,8.97
2018-12-14T23:34:26.363Z,8.77
2018-12-14T23:36:53.661Z,9.23
2018-12-14T23:39:20.926Z,9.17
2018-12-14T23:41:48.134Z,8.27
2018-12-14T23:44:15.379Z,8.40
2018-12-14T23:46:42.663Z,8.37
2018-12-14T23:49:09.959Z,7.93
2018-12-14T23:51:37.191Z,8.23
2018-12-14T23:54:04.407Z,7.97
2018-12-14T23:56:31.691Z,7.93
2018-12-14T23:58:58.903Z,8.33
